Terminal Aerodrome Forecast
Issued by NWS Grand Forks, ND

Home | Current Version | Previous Version | Text Only | Print | Product List | Glossary Off
Versions: 1 2 3 4 5 6 7 8 9 10 11 12 13 14 15 16 17

121
FTUS43 KFGF 202333
TAFFAR
TAF
KFAR 202333Z 2100/2124 04013KT 6SM -RA BR BKN015 OVC025
     FM210500 01010KT P6SM -RA OVC008
     FM211100 35010KT P6SM OVC010
     FM211500 33012KT P6SM OVC015
     FM211700 33014G22KT P6SM OVC025=

USA.gov is the U.S. government's official web portal to all federal, state and local government web resources and services.